createdAt,value
2022-08-17T00:01:27.759Z,22.54
2022-08-17T00:06:35.829Z,22.34
2022-08-17T00:12:35.010Z,22.28
2022-08-17T00:17:09.819Z,21.73
2022-08-17T00:22:31.501Z,21.96
2022-08-17T00:27:40.979Z,21.99
2022-08-17T00:33:23.110Z,22.10
2022-08-17T00:38:15.613Z,22.20
2022-08-17T00:43:24.100Z,22.07
2022-08-17T00:48:30.451Z,22.09
2022-08-17T00:53:45.610Z,21.81
2022-08-17T00:58:52.538Z,21.83
2022-08-17T01:03:58.124Z,21.86
2022-08-17T01:09:08.775Z,21.79
2022-08-17T01:14:13.822Z,21.85
2022-08-17T01:19:21.862Z,21.77
2022-08-17T01:24:29.817Z,21.54
2022-08-17T01:29:35.016Z,21.54
2022-08-17T01:34:43.882Z,21.55
2022-08-17T01:40:03.011Z,21.57
2022-08-17T01:45:12.141Z,21.49
2022-08-17T01:50:20.066Z,21.36
2022-08-17T01:55:36.595Z,21.17
2022-08-17T02:00:59.346Z,21.33
2022-08-17T02:06:27.008Z,20.90
2022-08-17T02:11:38.484Z,20.98
2022-08-17T02:16:44.264Z,21.04
2022-08-17T02:21:51.025Z,21.12
2022-08-17T02:26:58.522Z,20.93
2022-08-17T02:32:03.444Z,21.21
2022-08-17T02:37:08.707Z,21.11
2022-08-17T02:42:17.292Z,20.95
2022-08-17T02:47:22.319Z,20.91
2022-08-17T02:52:42.496Z,20.82
2022-08-17T02:57:59.423Z,20.71
2022-08-17T03:03:05.372Z,20.65
2022-08-17T03:08:13.261Z,20.49
2022-08-17T03:13:21.241Z,20.33
2022-08-17T03:18:28.091Z,20.33
2022-08-17T03:23:34.492Z,20.35
2022-08-17T03:28:42.306Z,20.06
2022-08-17T03:33:47.409Z,19.79
2022-08-17T03:38:52.359Z,19.56
2022-08-17T03:44:00.000Z,19.55
2022-08-17T03:49:17.487Z,19.63
2022-08-17T03:54:35.856Z,19.50
2022-08-17T03:59:45.004Z,19.24
2022-08-17T04:04:52.674Z,19.37
2022-08-17T04:09:58.333Z,19.08
2022-08-17T04:15:06.773Z,19.23
2022-08-17T04:20:13.344Z,19.31
2022-08-17T04:25:20.976Z,19.62
2022-08-17T04:30:29.703Z,20.05
2022-08-17T04:35:38.185Z,20.47
2022-08-17T04:40:55.906Z,21.26
2022-08-17T04:46:05.871Z,21.69
2022-08-17T04:51:14.854Z,21.49
2022-08-17T04:56:20.299Z,21.95
2022-08-17T05:01:29.638Z,21.49
2022-08-17T05:06:34.732Z,20.74
2022-08-17T05:11:39.886Z,20.84
2022-08-17T05:16:52.721Z,23.64
2022-08-17T05:21:57.656Z,25.46
2022-08-17T05:27:06.037Z,26.40
2022-08-17T05:32:38.289Z,25.90
2022-08-17T05:37:41.301Z,26.59
2022-08-17T05:42:46.753Z,28.08
2022-08-17T05:47:54.350Z,27.87
2022-08-17T05:53:06.793Z,27.45
2022-08-17T05:58:23.109Z,25.22
2022-08-17T06:03:41.816Z,26.06
2022-08-17T06:08:54.221Z,27.31
2022-08-17T06:14:22.451Z,29.16
2022-08-17T06:19:36.816Z,27.52
2022-08-17T06:24:46.678Z,28.38
2022-08-17T06:29:56.830Z,27.48
2022-08-17T06:35:07.113Z,30.92
2022-08-17T06:40:29.256Z,31.65
2022-08-17T06:45:38.811Z,31.53
2022-08-17T06:50:53.637Z,33.88
2022-08-17T06:56:04.598Z,32.68
2022-08-17T07:01:14.270Z,35.04
2022-08-17T07:06:25.251Z,35.38
2022-08-17T07:11:37.047Z,35.65
2022-08-17T07:16:46.619Z,35.85
2022-08-17T07:22:03.275Z,35.43
2022-08-17T07:27:13.314Z,34.31
2022-08-17T07:32:22.966Z,30.77
2022-08-17T07:37:32.448Z,30.62
2022-08-17T07:42:40.706Z,31.40
2022-08-17T07:48:05.924Z,33.29
2022-08-17T07:53:23.215Z,33.29
2022-08-17T07:58:28.360Z,30.60
2022-08-17T08:03:34.914Z,30.87
2022-08-17T08:08:47.316Z,31.12
2022-08-17T08:13:52.790Z,31.56
2022-08-17T08:19:00.219Z,32.61
2022-08-17T08:24:23.372Z,30.58
2022-08-17T08:29:39.791Z,30.67
2022-08-17T08:35:02.672Z,32.72
2022-08-17T08:40:23.092Z,33.56
2022-08-17T08:45:36.141Z,34.19
2022-08-17T08:50:48.953Z,32.61
2022-08-17T08:56:01.355Z,33.32
2022-08-17T09:01:16.980Z,31.70
2022-08-17T09:06:40.167Z,32.37
2022-08-17T09:12:02.024Z,32.84
2022-08-17T09:17:18.912Z,33.35
2022-08-17T09:22:33.720Z,32.43
2022-08-17T09:27:53.324Z,34.30
2022-08-17T09:33:02.542Z,33.34
2022-08-17T09:38:17.699Z,32.60
2022-08-17T09:43:33.456Z,32.42
2022-08-17T09:48:44.635Z,32.92
2022-08-17T09:53:50.390Z,33.70
2022-08-17T09:59:14.153Z,32.72
2022-08-17T10:04:39.834Z,34.13
2022-08-17T10:10:00.234Z,32.66
2022-08-17T10:15:18.983Z,32.76
2022-08-17T10:20:33.523Z,31.97
2022-08-17T10:25:55.508Z,33.18
2022-08-17T10:36:46.342Z,34.19
2022-08-17T10:41:56.110Z,34.29
2022-08-17T10:47:11.821Z,32.43
2022-08-17T10:52:46.686Z,33.15
2022-08-17T10:57:54.962Z,32.50
2022-08-17T11:03:02.557Z,33.57
2022-08-17T11:08:29.296Z,32.95
2022-08-17T11:13:41.435Z,32.36
2022-08-17T11:19:14.107Z,32.49
2022-08-17T11:24:25.151Z,31.76
2022-08-17T11:29:37.417Z,32.98
2022-08-17T11:34:47.421Z,33.07
2022-08-17T11:40:26.052Z,32.02
2022-08-17T11:45:45.330Z,32.73
2022-08-17T11:51:12.970Z,33.84
2022-08-17T11:56:46.530Z,34.06
2022-08-17T12:01:57.253Z,33.44
2022-08-17T12:07:13.056Z,33.38
2022-08-17T12:12:22.546Z,33.04
2022-08-17T12:17:40.938Z,32.40
2022-08-17T12:23:04.194Z,31.61
2022-08-17T12:28:24.843Z,32.17
2022-08-17T12:33:30.495Z,32.34
2022-08-17T12:38:41.946Z,32.55
2022-08-17T12:43:47.029Z,32.39
2022-08-17T12:48:59.696Z,32.15
2022-08-17T12:54:07.921Z,32.76
2022-08-17T12:59:15.500Z,33.28
2022-08-17T13:04:34.762Z,33.45
2022-08-17T13:09:42.330Z,32.76
2022-08-17T13:14:48.567Z,32.39
2022-08-17T13:19:54.455Z,32.52
2022-08-17T13:25:07.574Z,32.29
2022-08-17T13:30:17.723Z,32.15
2022-08-17T13:35:50.328Z,32.51
2022-08-17T13:40:58.046Z,32.79
2022-08-17T13:46:11.687Z,32.48
2022-08-17T13:51:22.845Z,32.99
2022-08-17T13:56:39.684Z,33.38
2022-08-17T14:01:53.537Z,33.35
2022-08-17T14:07:02.905Z,33.07
2022-08-17T14:12:15.540Z,32.84
2022-08-17T14:17:20.650Z,32.66
2022-08-17T14:22:30.617Z,32.38
2022-08-17T14:27:41.627Z,32.39
2022-08-17T14:32:58.480Z,32.38
2022-08-17T14:38:09.166Z,31.96
2022-08-17T14:43:17.978Z,32.20
2022-08-17T14:48:23.100Z,32.12
2022-08-17T14:53:28.085Z,32.34
2022-08-17T14:58:35.723Z,31.88
2022-08-17T15:03:43.974Z,32.07
2022-08-17T15:08:49.044Z,31.98
2022-08-17T15:13:56.649Z,31.80
2022-08-17T15:19:01.575Z,31.71
2022-08-17T15:24:06.634Z,32.04
2022-08-17T15:29:14.747Z,32.09
2022-08-17T15:34:20.259Z,32.12
2022-08-17T15:39:25.283Z,32.02
2022-08-17T15:44:35.112Z,32.02
2022-08-17T15:49:42.337Z,31.86
2022-08-17T15:54:55.542Z,32.02
2022-08-17T16:00:05.666Z,32.10
2022-08-17T16:05:24.205Z,32.32
2022-08-17T16:10:35.257Z,32.34
2022-08-17T16:15:43.614Z,32.23
2022-08-17T16:20:48.582Z,31.75
2022-08-17T16:25:54.545Z,31.95
2022-08-17T16:31:02.232Z,31.78
2022-08-17T16:36:07.778Z,31.60
2022-08-17T16:41:12.754Z,31.48
2022-08-17T16:46:20.283Z,31.36
2022-08-17T16:51:25.187Z,31.23
2022-08-17T16:56:32.851Z,31.06
2022-08-17T17:01:41.880Z,31.02
2022-08-17T17:07:01.155Z,30.80
2022-08-17T17:12:10.995Z,31.04
2022-08-17T17:17:27.735Z,30.84
2022-08-17T17:22:41.160Z,30.72
2022-08-17T17:27:54.254Z,30.61
2022-08-17T17:33:08.039Z,30.44
2022-08-17T17:38:18.254Z,30.21
2022-08-17T17:43:44.881Z,30.00
2022-08-17T17:48:52.718Z,30.07
2022-08-17T17:54:02.759Z,29.89
2022-08-17T17:59:15.142Z,29.39
2022-08-17T18:04:36.345Z,29.16
2022-08-17T18:10:02.739Z,28.78
2022-08-17T18:15:24.399Z,28.67
2022-08-17T18:20:43.391Z,28.50
2022-08-17T18:26:01.572Z,28.51
2022-08-17T18:31:18.479Z,28.45
2022-08-17T18:36:33.707Z,28.22
2022-08-17T18:41:44.229Z,28.22
2022-08-17T18:46:49.046Z,27.86
2022-08-17T18:52:13.885Z,27.37
2022-08-17T18:57:33.183Z,27.44
2022-08-17T19:02:50.815Z,27.41
2022-08-17T19:08:20.325Z,27.11
2022-08-17T19:13:31.288Z,27.08
2022-08-17T19:18:41.618Z,27.03
2022-08-17T19:23:54.757Z,26.97
2022-08-17T19:29:02.788Z,26.67
2022-08-17T19:34:07.856Z,26.67
2022-08-17T19:39:26.450Z,26.51
2022-08-17T19:44:54.769Z,25.99
2022-08-17T19:50:07.220Z,25.86
2022-08-17T19:55:23.965Z,25.73
2022-08-17T20:00:31.110Z,25.87
2022-08-17T20:06:08.576Z,25.99
2022-08-17T20:11:12.994Z,25.92
2022-08-17T20:16:19.822Z,25.74
2022-08-17T20:21:30.126Z,25.59
2022-08-17T20:26:49.102Z,25.42
2022-08-17T20:32:22.046Z,25.06
2022-08-17T20:37:34.366Z,25.13
2022-08-17T20:42:41.877Z,24.94
